createdAt,value
2022-10-31T00:03:46.250Z,24.60
2022-10-31T00:08:46.137Z,24.40
2022-10-31T00:13:46.311Z,24.80
2022-10-31T00:18:46.058Z,24.90
2022-10-31T00:23:46.093Z,25.90
2022-10-31T00:28:45.931Z,25.00
2022-10-31T00:33:45.874Z,25.60
2022-10-31T00:38:45.776Z,24.20
2022-10-31T00:43:45.745Z,25.20
2022-10-31T00:48:45.635Z,25.60
2022-10-31T00:53:45.549Z,25.80
2022-10-31T00:58:45.485Z,26.70
2022-10-31T01:03:45.448Z,24.80
2022-10-31T01:08:45.372Z,25.30
2022-10-31T01:13:45.330Z,26.10
2022-10-31T01:18:45.247Z,25.40
2022-10-31T01:23:45.186Z,25.90
2022-10-31T01:28:45.216Z,25.90
2022-10-31T01:33:45.027Z,24.20
2022-10-31T01:38:44.987Z,24.70
2022-10-31T01:43:44.918Z,22.00
2022-10-31T01:48:44.876Z,23.50
2022-10-31T01:53:44.763Z,24.70
2022-10-31T01:58:44.749Z,23.40
2022-10-31T02:03:44.666Z,24.50
2022-10-31T02:08:44.627Z,24.20
2022-10-31T02:13:44.526Z,23.10
2022-10-31T02:18:44.467Z,22.70
2022-10-31T02:23:47.811Z,24.10
2022-10-31T02:28:45.453Z,23.50
2022-10-31T02:33:44.244Z,23.80
2022-10-31T02:38:44.195Z,23.80
2022-10-31T02:43:44.130Z,24.10
2022-10-31T02:48:44.086Z,22.40
2022-10-31T02:53:43.991Z,22.50
2022-10-31T02:58:43.952Z,23.20
2022-10-31T03:03:43.856Z,23.60
2022-10-31T03:08:43.792Z,23.00
2022-10-31T03:13:43.741Z,21.60
2022-10-31T03:18:43.669Z,21.70
2022-10-31T03:23:43.617Z,21.80
2022-10-31T03:28:43.542Z,21.30
2022-10-31T03:33:43.499Z,20.40
2022-10-31T03:38:43.405Z,21.30
2022-10-31T03:43:43.452Z,19.40
2022-10-31T03:48:43.401Z,20.20
2022-10-31T03:53:43.255Z,20.20
2022-10-31T03:58:43.294Z,18.40
2022-10-31T04:03:43.146Z,18.30
2022-10-31T04:08:43.053Z,19.10
2022-10-31T04:13:42.947Z,18.60
2022-10-31T04:18:42.905Z,19.40
2022-10-31T04:23:42.791Z,21.30
2022-10-31T04:28:42.727Z,22.70
2022-10-31T04:33:42.706Z,21.30
2022-10-31T04:38:42.629Z,21.20
2022-10-31T04:43:42.520Z,20.30
2022-10-31T04:48:42.449Z,20.60
2022-10-31T04:53:42.411Z,21.00
2022-10-31T04:58:42.324Z,21.30
2022-10-31T05:03:42.286Z,20.40
2022-10-31T05:08:42.223Z,20.00
2022-10-31T05:13:42.130Z,19.90
2022-10-31T05:18:42.100Z,19.50
2022-10-31T05:23:45.934Z,19.30
2022-10-31T05:28:42.957Z,18.50
2022-10-31T05:33:41.834Z,18.80
2022-10-31T05:38:41.766Z,18.70
2022-10-31T05:43:41.707Z,19.40
2022-10-31T05:48:41.643Z,18.40
2022-10-31T05:53:41.585Z,18.20
2022-10-31T05:58:41.495Z,18.40
2022-10-31T06:03:41.463Z,18.50
2022-10-31T06:08:41.365Z,17.50
2022-10-31T06:13:41.307Z,16.90
2022-10-31T06:18:41.267Z,16.50
2022-10-31T06:23:41.192Z,15.70
2022-10-31T06:28:41.175Z,16.90
2022-10-31T06:33:41.096Z,15.00
2022-10-31T06:38:41.068Z,15.70
2022-10-31T06:43:40.972Z,15.10
2022-10-31T06:48:40.895Z,14.30
2022-10-31T06:53:40.777Z,13.20
2022-10-31T06:58:40.715Z,12.10
2022-10-31T07:03:40.675Z,11.20
2022-10-31T07:08:40.613Z,10.30
2022-10-31T07:13:40.506Z,10.10
2022-10-31T07:18:40.475Z,10.20
2022-10-31T07:23:40.397Z,10.10
2022-10-31T07:28:40.329Z,9.80
2022-10-31T07:33:40.227Z,9.50
2022-10-31T07:38:40.196Z,9.20
2022-10-31T07:43:40.149Z,8.80
2022-10-31T07:48:40.047Z,8.60
2022-10-31T07:53:40.144Z,9.30
2022-10-31T07:58:39.912Z,9.00
2022-10-31T08:03:39.834Z,8.40
2022-10-31T08:08:39.772Z,8.70
2022-10-31T08:13:39.721Z,8.40
2022-10-31T08:18:39.692Z,8.60
2022-10-31T08:23:39.655Z,7.90
2022-10-31T08:28:39.503Z,8.80
2022-10-31T08:33:39.482Z,8.70
2022-10-31T08:38:39.392Z,8.90
2022-10-31T08:43:39.314Z,8.90
2022-10-31T08:48:39.255Z,8.80
2022-10-31T08:53:39.244Z,8.40
2022-10-31T08:58:40.337Z,8.30
2022-10-31T09:03:39.044Z,9.30
2022-10-31T09:08:38.988Z,8.40
2022-10-31T09:13:41.393Z,8.10
2022-10-31T09:18:38.878Z,7.60
2022-10-31T09:23:38.790Z,7.30
2022-10-31T09:28:38.795Z,7.00
2022-10-31T09:33:38.708Z,7.30
2022-10-31T09:38:38.615Z,6.40
2022-10-31T09:43:38.556Z,6.50
2022-10-31T09:48:38.481Z,6.30
2022-10-31T09:53:38.414Z,6.10
2022-10-31T09:58:39.088Z,5.90
2022-10-31T10:03:38.329Z,5.80
2022-10-31T10:08:38.321Z,6.10
2022-10-31T10:13:38.125Z,5.90
2022-10-31T10:18:38.071Z,5.70
2022-10-31T10:23:38.053Z,5.60
2022-10-31T10:28:37.932Z,6.60
2022-10-31T10:33:37.870Z,5.90
2022-10-31T10:38:37.806Z,5.10
2022-10-31T10:43:37.818Z,5.20
2022-10-31T10:48:37.749Z,5.30
2022-10-31T10:53:37.676Z,5.30
2022-10-31T10:58:37.664Z,4.80
2022-10-31T11:03:37.572Z,4.80
2022-10-31T11:08:37.468Z,4.70
2022-10-31T11:13:37.360Z,4.60
2022-10-31T11:18:37.358Z,5.00
2022-10-31T11:23:37.223Z,5.20
2022-10-31T11:28:37.154Z,5.00
2022-10-31T11:33:37.059Z,5.70
2022-10-31T11:38:37.025Z,5.70
2022-10-31T11:43:36.931Z,6.70
2022-10-31T11:48:36.895Z,6.60
2022-10-31T11:53:37.103Z,6.90
2022-10-31T11:58:36.806Z,7.70
2022-10-31T12:03:36.679Z,6.40
2022-10-31T12:08:36.624Z,6.70
2022-10-31T12:13:36.567Z,6.20
2022-10-31T12:18:36.485Z,6.70
2022-10-31T12:23:36.416Z,6.50
2022-10-31T12:28:39.977Z,7.10
2022-10-31T12:33:37.380Z,5.90
2022-10-31T12:38:36.218Z,5.70
2022-10-31T12:43:36.193Z,5.60
2022-10-31T12:48:36.131Z,5.40
2022-10-31T12:53:36.030Z,5.60
2022-10-31T12:58:35.984Z,5.50
2022-10-31T13:03:35.881Z,4.50
2022-10-31T13:08:35.909Z,5.40
2022-10-31T13:13:35.745Z,6.00
2022-10-31T13:18:35.702Z,5.10
2022-10-31T13:23:51.944Z,4.70
2022-10-31T13:28:36.607Z,5.20
2022-10-31T13:33:35.495Z,5.70
2022-10-31T13:38:35.437Z,5.00
2022-10-31T13:43:35.357Z,4.60
2022-10-31T13:48:35.331Z,5.10
2022-10-31T13:53:35.228Z,4.30
2022-10-31T13:58:35.169Z,5.00
2022-10-31T14:03:58.391Z,4.40
2022-10-31T14:08:36.046Z,4.70
2022-10-31T14:13:34.961Z,4.90
2022-10-31T14:18:34.901Z,4.90
2022-10-31T14:23:34.850Z,4.70
2022-10-31T14:28:34.772Z,4.70
2022-10-31T14:33:34.700Z,4.50
2022-10-31T14:38:34.651Z,4.30
2022-10-31T14:43:34.594Z,4.50
2022-10-31T14:48:34.549Z,4.30
2022-10-31T14:53:34.445Z,5.00
2022-10-31T15:03:34.335Z,4.30
2022-10-31T15:08:34.266Z,4.70
2022-10-31T15:13:34.253Z,4.60
2022-10-31T15:18:34.146Z,5.10
2022-10-31T15:23:34.077Z,5.10
2022-10-31T15:28:34.000Z,5.40
2022-10-31T15:33:38.711Z,5.40
2022-10-31T15:38:34.848Z,5.50
2022-10-31T15:43:33.778Z,6.50
2022-10-31T15:48:33.750Z,6.00
2022-10-31T15:53:33.632Z,7.00
2022-10-31T15:58:33.609Z,6.60
2022-10-31T16:03:33.507Z,7.40
2022-10-31T16:08:33.474Z,7.30
2022-10-31T16:13:33.400Z,8.90
2022-10-31T16:18:33.312Z,9.40
2022-10-31T16:23:33.462Z,9.80
2022-10-31T16:28:35.635Z,11.50
2022-10-31T16:33:34.155Z,9.50
2022-10-31T16:38:33.122Z,14.30
2022-10-31T16:43:33.327Z,11.40
2022-10-31T16:48:33.052Z,13.70
2022-10-31T16:53:32.917Z,13.90
2022-10-31T16:58:32.807Z,12.20
2022-10-31T17:03:32.833Z,12.00
2022-10-31T17:08:32.692Z,13.90
2022-10-31T17:13:32.835Z,12.30
2022-10-31T17:18:32.580Z,11.00
2022-10-31T17:23:32.696Z,11.70
2022-10-31T17:28:32.663Z,10.60
2022-10-31T17:33:32.701Z,11.10
2022-10-31T17:38:32.543Z,9.80
2022-10-31T17:43:32.191Z,10.50
2022-10-31T17:48:32.137Z,10.80
2022-10-31T17:53:32.287Z,11.70
2022-10-31T17:58:32.070Z,12.30
2022-10-31T18:03:31.959Z,13.40
2022-10-31T18:08:31.851Z,14.50
2022-10-31T18:13:31.825Z,14.40
2022-10-31T18:18:31.800Z,15.20
2022-10-31T18:23:31.638Z,15.40
2022-10-31T18:28:31.578Z,15.20
2022-10-31T18:33:31.505Z,15.70
2022-10-31T18:38:31.466Z,15.00
2022-10-31T18:43:31.373Z,15.50
2022-10-31T18:48:31.355Z,14.80
2022-10-31T18:53:31.517Z,15.70
2022-10-31T18:58:31.174Z,15.30
2022-10-31T19:03:31.281Z,17.60
2022-10-31T19:08:31.037Z,16.40
2022-10-31T19:13:31.036Z,16.70
2022-10-31T19:18:30.893Z,18.60
2022-10-31T19:23:30.900Z,20.20
2022-10-31T19:28:30.805Z,17.50
2022-10-31T19:33:34.979Z,18.70
2022-10-31T19:38:31.646Z,18.90
2022-10-31T19:43:30.708Z,18.30
2022-10-31T19:48:30.523Z,18.50
2022-10-31T19:53:30.487Z,18.50
2022-10-31T19:58:30.386Z,17.50
2022-10-31T20:03:30.323Z,18.10
2022-10-31T20:08:30.257Z,18.60
2022-10-31T20:13:30.203Z,18.90
2022-10-31T20:18:30.167Z,18.90
2022-10-31T20:23:30.122Z,19.10
2022-10-31T20:28:29.984Z,18.10
2022-10-31T20:33:29.923Z,18.60
2022-10-31T20:38:29.927Z,18.10
2022-10-31T20:43:30.246Z,18.00
2022-10-31T20:48:29.777Z,18.20
2022-10-31T20:53:29.728Z,17.70
2022-10-31T20:58:29.634Z,17.50
2022-10-31T21:03:29.529Z,18.00
2022-10-31T21:08:29.504Z,17.30
2022-10-31T21:13:29.495Z,17.00
2022-10-31T21:18:29.349Z,17.10
2022-10-31T21:23:29.288Z,17.60
2022-10-31T21:28:29.245Z,16.40
2022-10-31T21:33:29.177Z,18.10
2022-10-31T21:38:29.116Z,18.90
2022-10-31T21:43:29.071Z,17.90
2022-10-31T21:48:28.955Z,18.10
2022-10-31T21:53:28.897Z,17.90
2022-10-31T21:58:28.810Z,19.10
2022-10-31T22:03:28.798Z,18.70
2022-10-31T22:08:28.677Z,19.10
2022-10-31T22:13:28.655Z,19.30
2022-10-31T22:18:28.663Z,19.80
2022-10-31T22:23:28.515Z,19.30
2022-10-31T22:28:28.424Z,19.70
2022-10-31T22:33:28.339Z,20.40
2022-10-31T22:38:28.378Z,20.50
2022-10-31T22:43:28.221Z,19.90
2022-10-31T22:48:28.149Z,20.00
2022-10-31T22:53:28.084Z,20.30
2022-10-31T22:58:28.009Z,21.50
2022-10-31T23:03:27.948Z,19.80
2022-10-31T23:08:27.886Z,18.80
2022-10-31T23:13:27.870Z,20.50
2022-10-31T23:18:48.531Z,23.40
2022-10-31T23:23:28.692Z,22.20
2022-10-31T23:28:27.641Z,22.90
2022-10-31T23:33:31.321Z,22.60
2022-10-31T23:38:27.513Z,22.60
2022-10-31T23:43:27.462Z,22.10
2022-10-31T23:48:27.357Z,22.60
2022-10-31T23:53:27.389Z,24.20
2022-10-31T23:58:27.231Z,26.20
